sensor_id;sensor_type;location;lat;lon;timestamp;temperature;humidity
25436;DHT22;13363;52.772;-3.890;2023-02-03T00:01:18;11.70;99.90
25436;DHT22;13363;52.772;-3.890;2023-02-03T00:03:44;11.80;99.90
25436;DHT22;13363;52.772;-3.890;2023-02-03T00:06:10;11.80;99.90
25436;DHT22;13363;52.772;-3.890;2023-02-03T00:08:37;11.80;99.90
25436;DHT22;13363;52.772;-3.890;2023-02-03T00:11:03;11.80;99.90
25436;DHT22;13363;52.772;-3.890;2023-02-03T00:13:29;11.80;99.90
25436;DHT22;13363;52.772;-3.890;2023-02-03T00:15:55;11.80;99.90
25436;DHT22;13363;52.772;-3.890;2023-02-03T00:18:20;11.80;99.90
25436;DHT22;13363;52.772;-3.890;2023-02-03T00:20:46;11.80;99.90
25436;DHT22;13363;52.772;-3.890;2023-02-03T00:23:12;11.70;99.90
25436;DHT22;13363;52.772;-3.890;2023-02-03T00:25:39;11.70;99.90
25436;DHT22;13363;52.772;-3.890;2023-02-03T00:28:05;11.70;99.90
25436;DHT22;13363;52.772;-3.890;2023-02-03T00:30:33;11.70;99.90
25436;DHT22;13363;52.772;-3.890;2023-02-03T00:33:00;11.70;99.90
25436;DHT22;13363;52.772;-3.890;2023-02-03T00:35:26;11.80;99.90
25436;DHT22;13363;52.772;-3.890;2023-02-03T00:37:54;11.80;99.90
25436;DHT22;13363;52.772;-3.890;2023-02-03T00:40:21;11.80;99.90
25436;DHT22;13363;52.772;-3.890;2023-02-03T00:42:47;11.70;99.90
25436;DHT22;13363;52.772;-3.890;2023-02-03T00:45:13;11.60;99.90
25436;DHT22;13363;52.772;-3.890;2023-02-03T00:47:39;11.60;99.90
25436;DHT22;13363;52.772;-3.890;2023-02-03T00:50:05;11.60;99.90
25436;DHT22;13363;52.772;-3.890;2023-02-03T00:52:32;11.60;99.90
25436;DHT22;13363;52.772;-3.890;2023-02-03T00:57:24;11.60;99.90
25436;DHT22;13363;52.772;-3.890;2023-02-03T00:59:50;11.60;99.90
25436;DHT22;13363;52.772;-3.890;2023-02-03T01:02:16;11.70;99.90
25436;DHT22;13363;52.772;-3.890;2023-02-03T01:04:45;11.70;99.90
25436;DHT22;13363;52.772;-3.890;2023-02-03T01:07:11;11.60;99.90
25436;DHT22;13363;52.772;-3.890;2023-02-03T01:09:37;11.60;99.90
25436;DHT22;13363;52.772;-3.890;2023-02-03T01:12:04;11.70;99.90
25436;DHT22;13363;52.772;-3.890;2023-02-03T01:14:30;11.70;99.90
25436;DHT22;13363;52.772;-3.890;2023-02-03T01:16:56;11.70;99.90
25436;DHT22;13363;52.772;-3.890;2023-02-03T01:19:22;11.70;99.90
25436;DHT22;13363;52.772;-3.890;2023-02-03T01:21:48;11.60;99.90
25436;DHT22;13363;52.772;-3.890;2023-02-03T01:24:14;11.60;99.90
25436;DHT22;13363;52.772;-3.890;2023-02-03T01:26:40;11.60;99.90
25436;DHT22;13363;52.772;-3.890;2023-02-03T01:29:06;11.60;99.90
25436;DHT22;13363;52.772;-3.890;2023-02-03T01:31:35;11.60;99.90
25436;DHT22;13363;52.772;-3.890;2023-02-03T01:34:05;11.60;99.90
25436;DHT22;13363;52.772;-3.890;2023-02-03T01:36:34;11.60;99.90
25436;DHT22;13363;52.772;-3.890;2023-02-03T01:39:00;11.60;99.90
25436;DHT22;13363;52.772;-3.890;2023-02-03T01:41:32;11.60;99.90
25436;DHT22;13363;52.772;-3.890;2023-02-03T01:44:00;11.60;99.90
25436;DHT22;13363;52.772;-3.890;2023-02-03T01:46:33;11.60;99.90
25436;DHT22;13363;52.772;-3.890;2023-02-03T01:49:08;11.60;99.90
25436;DHT22;13363;52.772;-3.890;2023-02-03T01:51:38;11.60;99.90
25436;DHT22;13363;52.772;-3.890;2023-02-03T01:54:08;11.60;99.90
25436;DHT22;13363;52.772;-3.890;2023-02-03T01:56:39;11.60;99.90
25436;DHT22;13363;52.772;-3.890;2023-02-03T01:59:07;11.60;99.90
25436;DHT22;13363;52.772;-3.890;2023-02-03T02:01:33;11.60;99.90
25436;DHT22;13363;52.772;-3.890;2023-02-03T02:04:02;11.60;99.90
25436;DHT22;13363;52.772;-3.890;2023-02-03T02:06:28;11.60;99.90
25436;DHT22;13363;52.772;-3.890;2023-02-03T02:08:56;11.60;99.90
25436;DHT22;13363;52.772;-3.890;2023-02-03T02:11:22;11.60;99.90
25436;DHT22;13363;52.772;-3.890;2023-02-03T02:13:50;11.60;99.90
25436;DHT22;13363;52.772;-3.890;2023-02-03T02:19:16;11.60;99.90
25436;DHT22;13363;52.772;-3.890;2023-02-03T02:24:53;11.60;99.90
25436;DHT22;13363;52.772;-3.890;2023-02-03T02:28:05;11.50;99.90
25436;DHT22;13363;52.772;-3.890;2023-02-03T02:30:42;11.60;99.90
25436;DHT22;13363;52.772;-3.890;2023-02-03T02:38:53;11.60;99.90
25436;DHT22;13363;52.772;-3.890;2023-02-03T02:41:28;11.50;99.90
25436;DHT22;13363;52.772;-3.890;2023-02-03T02:44:28;11.50;99.90
25436;DHT22;13363;52.772;-3.890;2023-02-03T02:46:58;11.50;99.90
25436;DHT22;13363;52.772;-3.890;2023-02-03T02:52:00;11.50;99.90
25436;DHT22;13363;52.772;-3.890;2023-02-03T02:54:28;11.50;99.90
25436;DHT22;13363;52.772;-3.890;2023-02-03T02:56:59;11.50;99.90
25436;DHT22;13363;52.772;-3.890;2023-02-03T02:59:26;11.50;99.90
25436;DHT22;13363;52.772;-3.890;2023-02-03T03:01:52;11.50;99.90
25436;DHT22;13363;52.772;-3.890;2023-02-03T03:04:22;11.50;99.90
25436;DHT22;13363;52.772;-3.890;2023-02-03T03:07:03;11.40;99.90
25436;DHT22;13363;52.772;-3.890;2023-02-03T03:10:02;11.50;99.90
25436;DHT22;13363;52.772;-3.890;2023-02-03T03:12:34;11.50;99.90
25436;DHT22;13363;52.772;-3.890;2023-02-03T03:15:05;11.50;99.90
25436;DHT22;13363;52.772;-3.890;2023-02-03T03:17:47;11.50;99.90
25436;DHT22;13363;52.772;-3.890;2023-02-03T03:20:19;11.50;99.90
25436;DHT22;13363;52.772;-3.890;2023-02-03T03:22:51;11.50;99.90
25436;DHT22;13363;52.772;-3.890;2023-02-03T03:25:24;11.50;99.90
25436;DHT22;13363;52.772;-3.890;2023-02-03T03:27:58;11.50;99.90
25436;DHT22;13363;52.772;-3.890;2023-02-03T03:30:32;11.50;99.90
25436;DHT22;13363;52.772;-3.890;2023-02-03T03:33:00;11.50;99.90
25436;DHT22;13363;52.772;-3.890;2023-02-03T03:35:33;11.50;99.90
25436;DHT22;13363;52.772;-3.890;2023-02-03T03:38:08;11.50;99.90
25436;DHT22;13363;52.772;-3.890;2023-02-03T03:40:47;11.50;99.90
25436;DHT22;13363;52.772;-3.890;2023-02-03T03:43:22;11.50;99.90
25436;DHT22;13363;52.772;-3.890;2023-02-03T03:46:03;11.50;99.90
25436;DHT22;13363;52.772;-3.890;2023-02-03T03:51:50;11.50;99.90
25436;DHT22;13363;52.772;-3.890;2023-02-03T03:54:19;11.40;99.90
25436;DHT22;13363;52.772;-3.890;2023-02-03T03:56:49;11.40;99.90
25436;DHT22;13363;52.772;-3.890;2023-02-03T03:59:19;11.40;99.90
25436;DHT22;13363;52.772;-3.890;2023-02-03T04:01:47;11.40;99.90
25436;DHT22;13363;52.772;-3.890;2023-02-03T04:04:14;11.40;99.90
25436;DHT22;13363;52.772;-3.890;2023-02-03T04:06:41;11.40;99.90
25436;DHT22;13363;52.772;-3.890;2023-02-03T04:09:07;11.40;99.90
25436;DHT22;13363;52.772;-3.890;2023-02-03T04:11:33;11.40;99.90
25436;DHT22;13363;52.772;-3.890;2023-02-03T04:14:17;11.40;99.90
25436;DHT22;13363;52.772;-3.890;2023-02-03T04:16:43;11.50;99.90
25436;DHT22;13363;52.772;-3.890;2023-02-03T04:19:09;11.40;99.90
25436;DHT22;13363;52.772;-3.890;2023-02-03T04:21:34;11.40;99.90
25436;DHT22;13363;52.772;-3.890;2023-02-03T04:24:00;11.40;99.90
25436;DHT22;13363;52.772;-3.890;2023-02-03T04:26:26;11.40;99.90
25436;DHT22;13363;52.772;-3.890;2023-02-03T04:28:52;11.40;99.90
25436;DHT22;13363;52.772;-3.890;2023-02-03T04:31:18;11.40;99.90
25436;DHT22;13363;52.772;-3.890;2023-02-03T04:33:44;11.50;99.90
25436;DHT22;13363;52.772;-3.890;2023-02-03T04:36:09;11.50;99.90
25436;DHT22;13363;52.772;-3.890;2023-02-03T04:38:35;11.40;99.90
25436;DHT22;13363;52.772;-3.890;2023-02-03T04:41:01;11.50;99.90
25436;DHT22;13363;52.772;-3.890;2023-02-03T04:43:27;11.50;99.90
25436;DHT22;13363;52.772;-3.890;2023-02-03T04:45:53;11.50;99.90
25436;DHT22;13363;52.772;-3.890;2023-02-03T04:48:18;11.50;99.90
25436;DHT22;13363;52.772;-3.890;2023-02-03T04:50:44;11.50;99.90
25436;DHT22;13363;52.772;-3.890;2023-02-03T04:53:10;11.50;99.90
25436;DHT22;13363;52.772;-3.890;2023-02-03T04:55:36;11.50;99.90
25436;DHT22;13363;52.772;-3.890;2023-02-03T04:58:02;11.50;99.90
25436;DHT22;13363;52.772;-3.890;2023-02-03T05:00:28;11.50;99.90
25436;DHT22;13363;52.772;-3.890;2023-02-03T05:02:54;11.50;99.90
25436;DHT22;13363;52.772;-3.890;2023-02-03T05:05:20;11.50;99.90
25436;DHT22;13363;52.772;-3.890;2023-02-03T05:07:46;11.50;99.90
25436;DHT22;13363;52.772;-3.890;2023-02-03T05:10:12;11.50;99.90
25436;DHT22;13363;52.772;-3.890;2023-02-03T05:12:38;11.50;99.90
25436;DHT22;13363;52.772;-3.890;2023-02-03T05:15:04;11.50;99.90
25436;DHT22;13363;52.772;-3.890;2023-02-03T05:17:30;11.50;99.90
25436;DHT22;13363;52.772;-3.890;2023-02-03T05:19:56;11.50;99.90
25436;DHT22;13363;52.772;-3.890;2023-02-03T05:22:22;11.50;99.90
25436;DHT22;13363;52.772;-3.890;2023-02-03T05:24:48;11.40;99.90
25436;DHT22;13363;52.772;-3.890;2023-02-03T05:27:13;11.50;99.90
25436;DHT22;13363;52.772;-3.890;2023-02-03T05:29:39;11.50;99.90
25436;DHT22;13363;52.772;-3.890;2023-02-03T05:32:05;11.50;99.90
25436;DHT22;13363;52.772;-3.890;2023-02-03T05:34:31;11.50;99.90
25436;DHT22;13363;52.772;-3.890;2023-02-03T05:36:57;11.50;99.90
25436;DHT22;13363;52.772;-3.890;2023-02-03T05:39:23;11.50;99.90
25436;DHT22;13363;52.772;-3.890;2023-02-03T05:41:48;11.50;99.90
25436;DHT22;13363;52.772;-3.890;2023-02-03T05:44:21;11.50;99.90
25436;DHT22;13363;52.772;-3.890;2023-02-03T05:46:48;11.50;99.90
25436;DHT22;13363;52.772;-3.890;2023-02-03T05:49:14;11.50;99.90
25436;DHT22;13363;52.772;-3.890;2023-02-03T05:51:40;11.50;99.90
25436;DHT22;13363;52.772;-3.890;2023-02-03T05:54:06;11.50;99.90
25436;DHT22;13363;52.772;-3.890;2023-02-03T05:56:32;11.50;99.90
25436;DHT22;13363;52.772;-3.890;2023-02-03T05:58:58;11.50;99.90
25436;DHT22;13363;52.772;-3.890;2023-02-03T06:01:24;11.50;99.90
25436;DHT22;13363;52.772;-3.890;2023-02-03T06:03:50;11.50;99.90
25436;DHT22;13363;52.772;-3.890;2023-02-03T06:06:16;11.50;99.90
25436;DHT22;13363;52.772;-3.890;2023-02-03T06:08:43;11.50;99.90
25436;DHT22;13363;52.772;-3.890;2023-02-03T06:11:09;11.50;99.90
25436;DHT22;13363;52.772;-3.890;2023-02-03T06:13:35;11.40;99.90
25436;DHT22;13363;52.772;-3.890;2023-02-03T06:16:01;11.40;99.90
25436;DHT22;13363;52.772;-3.890;2023-02-03T06:18:27;11.50;99.90
25436;DHT22;13363;52.772;-3.890;2023-02-03T06:20:53;11.50;99.90
25436;DHT22;13363;52.772;-3.890;2023-02-03T06:23:19;11.50;99.90
25436;DHT22;13363;52.772;-3.890;2023-02-03T06:25:49;11.50;99.90
25436;DHT22;13363;52.772;-3.890;2023-02-03T06:28:16;11.50;99.90
25436;DHT22;13363;52.772;-3.890;2023-02-03T06:30:42;11.50;99.90
25436;DHT22;13363;52.772;-3.890;2023-02-03T06:33:08;11.50;99.90
25436;DHT22;13363;52.772;-3.890;2023-02-03T06:35:34;11.50;99.90
25436;DHT22;13363;52.772;-3.890;2023-02-03T06:38:01;11.60;99.90
25436;DHT22;13363;52.772;-3.890;2023-02-03T06:40:26;11.60;99.90
25436;DHT22;13363;52.772;-3.890;2023-02-03T06:42:52;11.50;99.90
25436;DHT22;13363;52.772;-3.890;2023-02-03T06:45:18;11.50;99.90
25436;DHT22;13363;52.772;-3.890;2023-02-03T06:47:45;11.50;99.90
25436;DHT22;13363;52.772;-3.890;2023-02-03T06:50:13;11.50;99.90
25436;DHT22;13363;52.772;-3.890;2023-02-03T06:52:40;11.60;99.90
25436;DHT22;13363;52.772;-3.890;2023-02-03T06:55:06;11.60;99.90
25436;DHT22;13363;52.772;-3.890;2023-02-03T06:57:32;11.60;99.90
25436;DHT22;13363;52.772;-3.890;2023-02-03T06:59:58;11.60;99.90
25436;DHT22;13363;52.772;-3.890;2023-02-03T07:02:24;11.60;99.90
25436;DHT22;13363;52.772;-3.890;2023-02-03T07:04:50;11.60;99.90
25436;DHT22;13363;52.772;-3.890;2023-02-03T07:07:16;11.60;99.90
25436;DHT22;13363;52.772;-3.890;2023-02-03T07:09:42;11.60;99.90
25436;DHT22;13363;52.772;-3.890;2023-02-03T07:12:08;11.60;99.90
25436;DHT22;13363;52.772;-3.890;2023-02-03T07:14:34;11.60;99.90
25436;DHT22;13363;52.772;-3.890;2023-02-03T07:17:03;11.50;99.90
25436;DHT22;13363;52.772;-3.890;2023-02-03T07:19:30;11.50;99.90
25436;DHT22;13363;52.772;-3.890;2023-02-03T07:21:56;11.60;99.90
25436;DHT22;13363;52.772;-3.890;2023-02-03T07:24:21;11.50;99.90
25436;DHT22;13363;52.772;-3.890;2023-02-03T07:26:47;11.60;99.90
25436;DHT22;13363;52.772;-3.890;2023-02-03T07:29:13;11.60;99.90
25436;DHT22;13363;52.772;-3.890;2023-02-03T07:31:39;11.60;99.90
25436;DHT22;13363;52.772;-3.890;2023-02-03T07:34:05;11.60;99.90
25436;DHT22;13363;52.772;-3.890;2023-02-03T07:36:31;11.60;99.90
25436;DHT22;13363;52.772;-3.890;2023-02-03T07:38:58;11.60;99.90
25436;DHT22;13363;52.772;-3.890;2023-02-03T07:41:23;11.60;99.90
25436;DHT22;13363;52.772;-3.890;2023-02-03T07:43:49;11.60;99.90
25436;DHT22;13363;52.772;-3.890;2023-02-03T07:46:15;11.60;99.90
25436;DHT22;13363;52.772;-3.890;2023-02-03T07:48:41;11.50;99.90
25436;DHT22;13363;52.772;-3.890;2023-02-03T07:51:07;11.60;99.90
25436;DHT22;13363;52.772;-3.890;2023-02-03T07:53:33;11.50;99.90
25436;DHT22;13363;52.772;-3.890;2023-02-03T07:56:00;11.50;99.90
25436;DHT22;13363;52.772;-3.890;2023-02-03T07:58:26;11.50;99.90
25436;DHT22;13363;52.772;-3.890;2023-02-03T08:00:52;11.50;99.90
25436;DHT22;13363;52.772;-3.890;2023-02-03T08:03:18;11.50;99.90
25436;DHT22;13363;52.772;-3.890;2023-02-03T08:05:43;11.50;99.90
25436;DHT22;13363;52.772;-3.890;2023-02-03T08:08:09;11.50;99.90
25436;DHT22;13363;52.772;-3.890;2023-02-03T08:10:35;11.50;99.90
25436;DHT22;13363;52.772;-3.890;2023-02-03T08:13:01;11.50;99.90
25436;DHT22;13363;52.772;-3.890;2023-02-03T08:15:27;11.50;99.90
25436;DHT22;13363;52.772;-3.890;2023-02-03T08:17:52;11.50;99.90
25436;DHT22;13363;52.772;-3.890;2023-02-03T08:20:18;11.50;99.90
25436;DHT22;13363;52.772;-3.890;2023-02-03T08:22:44;11.50;99.90
25436;DHT22;13363;52.772;-3.890;2023-02-03T08:25:11;11.60;99.90
25436;DHT22;13363;52.772;-3.890;2023-02-03T08:27:38;11.60;99.90
25436;DHT22;13363;52.772;-3.890;2023-02-03T08:30:05;11.60;99.90
25436;DHT22;13363;52.772;-3.890;2023-02-03T08:32:32;11.50;99.90
25436;DHT22;13363;52.772;-3.890;2023-02-03T08:34:57;11.50;99.90
25436;DHT22;13363;52.772;-3.890;2023-02-03T08:37:23;11.50;99.90
25436;DHT22;13363;52.772;-3.890;2023-02-03T08:39:51;11.60;99.90
25436;DHT22;13363;52.772;-3.890;2023-02-03T08:42:18;11.60;99.90
25436;DHT22;13363;52.772;-3.890;2023-02-03T08:44:44;11.60;99.90
25436;DHT22;13363;52.772;-3.890;2023-02-03T08:47:10;11.60;99.90
25436;DHT22;13363;52.772;-3.890;2023-02-03T08:49:37;11.60;99.90
25436;DHT22;13363;52.772;-3.890;2023-02-03T08:52:08;11.60;99.90
25436;DHT22;13363;52.772;-3.890;2023-02-03T08:54:35;11.60;99.90
25436;DHT22;13363;52.772;-3.890;2023-02-03T08:57:01;11.60;99.90
25436;DHT22;13363;52.772;-3.890;2023-02-03T08:59:27;11.60;99.90
25436;DHT22;13363;52.772;-3.890;2023-02-03T09:01:53;11.70;99.90
25436;DHT22;13363;52.772;-3.890;2023-02-03T09:04:19;11.70;99.90
25436;DHT22;13363;52.772;-3.890;2023-02-03T09:06:52;11.60;99.90
25436;DHT22;13363;52.772;-3.890;2023-02-03T09:09:22;11.60;99.90
25436;DHT22;13363;52.772;-3.890;2023-02-03T09:11:50;11.70;99.90
25436;DHT22;13363;52.772;-3.890;2023-02-03T09:14:15;11.70;99.90
25436;DHT22;13363;52.772;-3.890;2023-02-03T09:16:41;11.70;99.90
25436;DHT22;13363;52.772;-3.890;2023-02-03T09:19:07;11.70;99.90
25436;DHT22;13363;52.772;-3.890;2023-02-03T09:21:33;11.70;99.90
25436;DHT22;13363;52.772;-3.890;2023-02-03T09:24:00;11.70;99.90
25436;DHT22;13363;52.772;-3.890;2023-02-03T09:26:27;11.70;99.90
25436;DHT22;13363;52.772;-3.890;2023-02-03T09:28:53;11.80;99.90
25436;DHT22;13363;52.772;-3.890;2023-02-03T09:31:19;11.70;99.90
25436;DHT22;13363;52.772;-3.890;2023-02-03T09:33:45;11.70;99.90
25436;DHT22;13363;52.772;-3.890;2023-02-03T09:36:12;11.70;99.90
25436;DHT22;13363;52.772;-3.890;2023-02-03T09:38:38;11.70;99.90
25436;DHT22;13363;52.772;-3.890;2023-02-03T09:46:37;11.70;99.90
25436;DHT22;13363;52.772;-3.890;2023-02-03T09:49:15;11.70;99.90
25436;DHT22;13363;52.772;-3.890;2023-02-03T09:57:19;11.60;99.90
25436;DHT22;13363;52.772;-3.890;2023-02-03T09:59:46;11.60;99.90
25436;DHT22;13363;52.772;-3.890;2023-02-03T10:18:12;11.70;99.90
25436;DHT22;13363;52.772;-3.890;2023-02-03T10:20:44;11.70;99.90
25436;DHT22;13363;52.772;-3.890;2023-02-03T10:23:17;11.70;99.90
25436;DHT22;13363;52.772;-3.890;2023-02-03T10:25:50;11.70;99.90
25436;DHT22;13363;52.772;-3.890;2023-02-03T10:28:26;11.80;99.90
25436;DHT22;13363;52.772;-3.890;2023-02-03T10:30:59;11.70;99.90
25436;DHT22;13363;52.772;-3.890;2023-02-03T10:33:28;11.70;99.90
25436;DHT22;13363;52.772;-3.890;2023-02-03T10:39:14;11.80;99.90
25436;DHT22;13363;52.772;-3.890;2023-02-03T10:41:42;11.80;99.90
25436;DHT22;13363;52.772;-3.890;2023-02-03T10:44:11;11.80;99.90
25436;DHT22;13363;52.772;-3.890;2023-02-03T10:46:40;11.70;99.90
25436;DHT22;13363;52.772;-3.890;2023-02-03T10:49:09;11.70;99.90
25436;DHT22;13363;52.772;-3.890;2023-02-03T10:51:46;11.80;99.90
25436;DHT22;13363;52.772;-3.890;2023-02-03T10:54:30;11.70;99.90
25436;DHT22;13363;52.772;-3.890;2023-02-03T10:57:11;11.70;99.90
25436;DHT22;13363;52.772;-3.890;2023-02-03T10:59:41;11.70;99.90
25436;DHT22;13363;52.772;-3.890;2023-02-03T11:02:13;11.70;99.90
25436;DHT22;13363;52.772;-3.890;2023-02-03T11:04:45;11.80;99.90
25436;DHT22;13363;52.772;-3.890;2023-02-03T11:07:24;11.80;99.90
25436;DHT22;13363;52.772;-3.890;2023-02-03T11:09:50;11.70;99.90
25436;DHT22;13363;52.772;-3.890;2023-02-03T11:12:18;11.80;99.90
25436;DHT22;13363;52.772;-3.890;2023-02-03T11:14:49;11.80;99.90
25436;DHT22;13363;52.772;-3.890;2023-02-03T11:17:22;11.80;99.90
25436;DHT22;13363;52.772;-3.890;2023-02-03T11:19:50;11.70;99.90
25436;DHT22;13363;52.772;-3.890;2023-02-03T11:22:36;11.70;99.90
25436;DHT22;13363;52.772;-3.890;2023-02-03T11:25:14;11.80;99.90
25436;DHT22;13363;52.772;-3.890;2023-02-03T11:27:41;11.80;99.90
25436;DHT22;13363;52.772;-3.890;2023-02-03T11:30:14;11.80;99.90
25436;DHT22;13363;52.772;-3.890;2023-02-03T11:32:42;11.80;99.90
25436;DHT22;13363;52.772;-3.890;2023-02-03T11:35:24;11.80;99.90
25436;DHT22;13363;52.772;-3.890;2023-02-03T11:37:53;11.80;99.90
25436;DHT22;13363;52.772;-3.890;2023-02-03T11:42:59;11.90;99.90
25436;DHT22;13363;52.772;-3.890;2023-02-03T11:45:43;11.90;99.90
25436;DHT22;13363;52.772;-3.890;2023-02-03T11:48:31;11.90;99.90
25436;DHT22;13363;52.772;-3.890;2023-02-03T11:57:01;11.80;99.90
25436;DHT22;13363;52.772;-3.890;2023-02-03T12:04:36;11.80;99.90
25436;DHT22;13363;52.772;-3.890;2023-02-03T12:10:20;11.80;99.90
25436;DHT22;13363;52.772;-3.890;2023-02-03T12:19:00;11.90;99.90
25436;DHT22;13363;52.772;-3.890;2023-02-03T12:21:42;11.80;99.90
25436;DHT22;13363;52.772;-3.890;2023-02-03T12:30:19;11.90;99.90
25436;DHT22;13363;52.772;-3.890;2023-02-03T12:32:56;11.90;99.90
25436;DHT22;13363;52.772;-3.890;2023-02-03T12:35:34;11.90;99.90
25436;DHT22;13363;52.772;-3.890;2023-02-03T12:38:24;11.90;99.90
25436;DHT22;13363;52.772;-3.890;2023-02-03T12:41:00;11.90;99.90
25436;DHT22;13363;52.772;-3.890;2023-02-03T12:43:43;11.90;99.90
25436;DHT22;13363;52.772;-3.890;2023-02-03T12:46:22;12.00;99.90
25436;DHT22;13363;52.772;-3.890;2023-02-03T12:51:39;12.00;99.90
25436;DHT22;13363;52.772;-3.890;2023-02-03T12:54:33;11.90;99.90
25436;DHT22;13363;52.772;-3.890;2023-02-03T12:57:27;11.90;99.90
25436;DHT22;13363;52.772;-3.890;2023-02-03T13:00:36;12.00;99.90
25436;DHT22;13363;52.772;-3.890;2023-02-03T13:03:07;12.00;99.90
25436;DHT22;13363;52.772;-3.890;2023-02-03T13:05:58;12.10;99.90
25436;DHT22;13363;52.772;-3.890;2023-02-03T13:08:36;12.10;99.90
25436;DHT22;13363;52.772;-3.890;2023-02-03T13:11:38;12.10;99.90
25436;DHT22;13363;52.772;-3.890;2023-02-03T13:14:21;12.10;99.90
25436;DHT22;13363;52.772;-3.890;2023-02-03T13:16:59;12.00;99.90
25436;DHT22;13363;52.772;-3.890;2023-02-03T13:19:41;12.00;99.90
25436;DHT22;13363;52.772;-3.890;2023-02-03T13:22:13;11.90;99.90
25436;DHT22;13363;52.772;-3.890;2023-02-03T13:24:48;12.00;99.90
25436;DHT22;13363;52.772;-3.890;2023-02-03T13:30:40;12.00;99.90
25436;DHT22;13363;52.772;-3.890;2023-02-03T13:38:44;11.90;99.90
25436;DHT22;13363;52.772;-3.890;2023-02-03T13:41:29;11.90;99.90
25436;DHT22;13363;52.772;-3.890;2023-02-03T13:43:56;11.90;99.90
25436;DHT22;13363;52.772;-3.890;2023-02-03T13:46:31;11.90;99.90
25436;DHT22;13363;52.772;-3.890;2023-02-03T13:49:00;11.90;99.90
25436;DHT22;13363;52.772;-3.890;2023-02-03T13:51:42;11.80;99.90
25436;DHT22;13363;52.772;-3.890;2023-02-03T13:54:26;11.90;99.90
25436;DHT22;13363;52.772;-3.890;2023-02-03T13:57:05;11.90;99.90
25436;DHT22;13363;52.772;-3.890;2023-02-03T13:59:39;11.90;99.90
25436;DHT22;13363;52.772;-3.890;2023-02-03T14:07:38;11.90;99.90
25436;DHT22;13363;52.772;-3.890;2023-02-03T14:18:00;11.90;99.90
25436;DHT22;13363;52.772;-3.890;2023-02-03T14:23:18;11.90;99.90
25436;DHT22;13363;52.772;-3.890;2023-02-03T14:25:49;11.90;99.90
25436;DHT22;13363;52.772;-3.890;2023-02-03T14:28:21;11.90;99.90
25436;DHT22;13363;52.772;-3.890;2023-02-03T14:31:07;11.90;99.90
25436;DHT22;13363;52.772;-3.890;2023-02-03T14:34:08;11.80;99.90
25436;DHT22;13363;52.772;-3.890;2023-02-03T14:36:43;11.90;99.90
25436;DHT22;13363;52.772;-3.890;2023-02-03T14:47:09;11.90;99.90
25436;DHT22;13363;52.772;-3.890;2023-02-03T14:57:39;11.90;99.90
25436;DHT22;13363;52.772;-3.890;2023-02-03T15:07:57;11.90;99.90
25436;DHT22;13363;52.772;-3.890;2023-02-03T15:10:29;11.90;99.90
25436;DHT22;13363;52.772;-3.890;2023-02-03T15:13:04;11.90;99.90
25436;DHT22;13363;52.772;-3.890;2023-02-03T15:15:39;11.90;99.90
25436;DHT22;13363;52.772;-3.890;2023-02-03T15:18:21;11.90;99.90
25436;DHT22;13363;52.772;-3.890;2023-02-03T15:20:53;11.80;99.90
25436;DHT22;13363;52.772;-3.890;2023-02-03T15:23:23;11.80;99.90
25436;DHT22;13363;52.772;-3.890;2023-02-03T15:25:54;11.90;99.90
25436;DHT22;13363;52.772;-3.890;2023-02-03T15:28:22;11.90;99.90
25436;DHT22;13363;52.772;-3.890;2023-02-03T15:33:24;11.80;99.90
25436;DHT22;13363;52.772;-3.890;2023-02-03T15:35:58;11.80;99.90
25436;DHT22;13363;52.772;-3.890;2023-02-03T15:38:30;11.70;99.90
25436;DHT22;13363;52.772;-3.890;2023-02-03T15:40:57;11.70;99.90
25436;DHT22;13363;52.772;-3.890;2023-02-03T15:43:38;11.70;99.90
25436;DHT22;13363;52.772;-3.890;2023-02-03T15:48:50;11.60;99.90
25436;DHT22;13363;52.772;-3.890;2023-02-03T15:54:35;11.60;99.90
25436;DHT22;13363;52.772;-3.890;2023-02-03T15:57:07;11.50;99.90
25436;DHT22;13363;52.772;-3.890;2023-02-03T15:59:39;11.50;99.90
25436;DHT22;13363;52.772;-3.890;2023-02-03T16:02:29;11.40;99.90
25436;DHT22;13363;52.772;-3.890;2023-02-03T16:04:55;11.30;99.90
25436;DHT22;13363;52.772;-3.890;2023-02-03T16:07:29;11.30;99.90
25436;DHT22;13363;52.772;-3.890;2023-02-03T16:09:56;11.20;99.90
25436;DHT22;13363;52.772;-3.890;2023-02-03T16:12:30;11.20;99.90
25436;DHT22;13363;52.772;-3.890;2023-02-03T16:14:58;11.20;99.90
25436;DHT22;13363;52.772;-3.890;2023-02-03T16:17:34;11.20;99.90
25436;DHT22;13363;52.772;-3.890;2023-02-03T16:25:33;11.20;99.90
25436;DHT22;13363;52.772;-3.890;2023-02-03T16:28:11;11.20;99.90
25436;DHT22;13363;52.772;-3.890;2023-02-03T16:33:49;11.20;99.90
25436;DHT22;13363;52.772;-3.890;2023-02-03T16:36:39;11.20;99.90
25436;DHT22;13363;52.772;-3.890;2023-02-03T16:39:24;11.20;99.90
25436;DHT22;13363;52.772;-3.890;2023-02-03T16:42:19;11.20;99.90
25436;DHT22;13363;52.772;-3.890;2023-02-03T16:45:16;11.10;99.90
25436;DHT22;13363;52.772;-3.890;2023-02-03T16:48:01;11.10;99.90
25436;DHT22;13363;52.772;-3.890;2023-02-03T16:50:46;11.10;99.90
25436;DHT22;13363;52.772;-3.890;2023-02-03T16:53:28;11.10;99.90
25436;DHT22;13363;52.772;-3.890;2023-02-03T16:55:57;11.10;99.90
25436;DHT22;13363;52.772;-3.890;2023-02-03T16:58:23;11.20;99.90
25436;DHT22;13363;52.772;-3.890;2023-02-03T17:00:51;11.20;99.90
25436;DHT22;13363;52.772;-3.890;2023-02-03T17:03:19;11.20;99.90
25436;DHT22;13363;52.772;-3.890;2023-02-03T17:05:46;11.20;99.90
25436;DHT22;13363;52.772;-3.890;2023-02-03T17:08:14;11.20;99.90
25436;DHT22;13363;52.772;-3.890;2023-02-03T17:10:42;11.20;99.90
25436;DHT22;13363;52.772;-3.890;2023-02-03T17:13:08;11.20;99.90
25436;DHT22;13363;52.772;-3.890;2023-02-03T17:15:41;11.20;99.90
25436;DHT22;13363;52.772;-3.890;2023-02-03T17:18:08;11.20;99.90
25436;DHT22;13363;52.772;-3.890;2023-02-03T17:20:34;11.30;99.90
25436;DHT22;13363;52.772;-3.890;2023-02-03T17:23:01;11.30;99.90
25436;DHT22;13363;52.772;-3.890;2023-02-03T17:25:27;11.30;99.90
25436;DHT22;13363;52.772;-3.890;2023-02-03T17:27:53;11.30;99.90
25436;DHT22;13363;52.772;-3.890;2023-02-03T17:30:19;11.30;99.90
25436;DHT22;13363;52.772;-3.890;2023-02-03T17:32:45;11.30;99.90
25436;DHT22;13363;52.772;-3.890;2023-02-03T17:35:11;11.30;99.90
25436;DHT22;13363;52.772;-3.890;2023-02-03T17:37:36;11.30;99.90
25436;DHT22;13363;52.772;-3.890;2023-02-03T17:40:03;11.40;99.90
25436;DHT22;13363;52.772;-3.890;2023-02-03T17:42:29;11.30;99.90
25436;DHT22;13363;52.772;-3.890;2023-02-03T17:44:55;11.40;99.90
25436;DHT22;13363;52.772;-3.890;2023-02-03T17:47:20;11.40;99.90
25436;DHT22;13363;52.772;-3.890;2023-02-03T17:49:46;11.40;99.90
25436;DHT22;13363;52.772;-3.890;2023-02-03T17:52:13;11.50;99.90
25436;DHT22;13363;52.772;-3.890;2023-02-03T17:54:39;11.50;99.90
25436;DHT22;13363;52.772;-3.890;2023-02-03T17:57:05;11.50;99.90
25436;DHT22;13363;52.772;-3.890;2023-02-03T17:59:31;11.50;99.90
25436;DHT22;13363;52.772;-3.890;2023-02-03T18:02:00;11.50;99.90